sensor_id;sensor_type;location;lat;lon;timestamp;P1;durP1;ratioP1;P2;durP2;ratioP2
53666;SDS011;39568;51.026;5.468;2023-02-28T00:00:24;14.18;;;8.07;;
53666;SDS011;39568;51.026;5.468;2023-02-28T00:02:51;13.82;;;8.10;;
53666;SDS011;39568;51.026;5.468;2023-02-28T00:05:19;11.25;;;8.73;;
53666;SDS011;39568;51.026;5.468;2023-02-28T00:07:47;14.05;;;8.93;;
53666;SDS011;39568;51.026;5.468;2023-02-28T00:10:15;13.30;;;9.32;;
53666;SDS011;39568;51.026;5.468;2023-02-28T00:12:45;12.98;;;8.70;;
53666;SDS011;39568;51.026;5.468;2023-02-28T00:15:13;19.85;;;10.25;;
53666;SDS011;39568;51.026;5.468;2023-02-28T00:17:40;15.95;;;10.88;;
53666;SDS011;39568;51.026;5.468;2023-02-28T00:20:08;15.77;;;10.95;;
53666;SDS011;39568;51.026;5.468;2023-02-28T00:22:37;29.20;;;12.32;;
53666;SDS011;39568;51.026;5.468;2023-02-28T00:25:05;18.92;;;12.30;;
53666;SDS011;39568;51.026;5.468;2023-02-28T00:27:33;28.30;;;12.80;;
53666;SDS011;39568;51.026;5.468;2023-02-28T00:30:00;19.88;;;11.43;;
53666;SDS011;39568;51.026;5.468;2023-02-28T00:32:28;16.52;;;12.05;;
53666;SDS011;39568;51.026;5.468;2023-02-28T00:34:55;23.25;;;11.18;;
53666;SDS011;39568;51.026;5.468;2023-02-28T00:37:22;24.77;;;13.48;;
53666;SDS011;39568;51.026;5.468;2023-02-28T00:39:49;14.38;;;11.45;;
53666;SDS011;39568;51.026;5.468;2023-02-28T00:42:16;16.55;;;10.90;;
53666;SDS011;39568;51.026;5.468;2023-02-28T00:44:42;15.85;;;11.45;;
53666;SDS011;39568;51.026;5.468;2023-02-28T00:47:09;22.42;;;11.93;;
53666;SDS011;39568;51.026;5.468;2023-02-28T00:49:37;22.00;;;11.32;;
53666;SDS011;39568;51.026;5.468;2023-02-28T00:52:04;12.25;;;9.77;;
53666;SDS011;39568;51.026;5.468;2023-02-28T00:54:30;18.52;;;11.18;;
53666;SDS011;39568;51.026;5.468;2023-02-28T00:56:57;13.25;;;11.02;;
53666;SDS011;39568;51.026;5.468;2023-02-28T00:59:24;21.85;;;12.82;;
53666;SDS011;39568;51.026;5.468;2023-02-28T01:01:51;16.98;;;12.20;;
53666;SDS011;39568;51.026;5.468;2023-02-28T01:04:18;14.70;;;10.50;;
53666;SDS011;39568;51.026;5.468;2023-02-28T01:06:46;16.80;;;10.77;;
53666;SDS011;39568;51.026;5.468;2023-02-28T01:09:12;16.38;;;11.60;;
53666;SDS011;39568;51.026;5.468;2023-02-28T01:11:39;23.58;;;12.68;;
53666;SDS011;39568;51.026;5.468;2023-02-28T01:14:09;13.68;;;10.88;;
53666;SDS011;39568;51.026;5.468;2023-02-28T01:16:38;22.88;;;11.13;;
53666;SDS011;39568;51.026;5.468;2023-02-28T01:19:04;19.02;;;12.15;;
53666;SDS011;39568;51.026;5.468;2023-02-28T01:21:31;18.80;;;10.80;;
53666;SDS011;39568;51.026;5.468;2023-02-28T01:24:01;17.35;;;10.63;;
53666;SDS011;39568;51.026;5.468;2023-02-28T01:26:28;29.40;;;11.30;;
53666;SDS011;39568;51.026;5.468;2023-02-28T01:28:55;25.73;;;10.98;;
53666;SDS011;39568;51.026;5.468;2023-02-28T01:31:22;16.00;;;11.05;;
53666;SDS011;39568;51.026;5.468;2023-02-28T01:33:50;17.17;;;11.15;;
53666;SDS011;39568;51.026;5.468;2023-02-28T01:36:17;19.05;;;11.52;;
53666;SDS011;39568;51.026;5.468;2023-02-28T01:38:47;18.35;;;11.00;;
53666;SDS011;39568;51.026;5.468;2023-02-28T01:41:16;19.48;;;10.80;;
53666;SDS011;39568;51.026;5.468;2023-02-28T01:43:52;16.63;;;12.68;;
53666;SDS011;39568;51.026;5.468;2023-02-28T01:46:29;19.70;;;10.95;;
53666;SDS011;39568;51.026;5.468;2023-02-28T01:48:57;20.55;;;12.65;;
53666;SDS011;39568;51.026;5.468;2023-02-28T01:51:30;28.42;;;12.45;;
53666;SDS011;39568;51.026;5.468;2023-02-28T01:56:32;22.30;;;12.85;;
53666;SDS011;39568;51.026;5.468;2023-02-28T01:59:02;17.67;;;12.05;;
53666;SDS011;39568;51.026;5.468;2023-02-28T02:01:29;17.52;;;11.48;;
53666;SDS011;39568;51.026;5.468;2023-02-28T02:03:57;17.70;;;11.25;;
53666;SDS011;39568;51.026;5.468;2023-02-28T02:06:26;22.00;;;11.95;;
53666;SDS011;39568;51.026;5.468;2023-02-28T02:08:56;30.87;;;13.97;;
53666;SDS011;39568;51.026;5.468;2023-02-28T02:11:23;20.15;;;12.82;;
53666;SDS011;39568;51.026;5.468;2023-02-28T02:14:18;16.00;;;12.10;;
53666;SDS011;39568;51.026;5.468;2023-02-28T02:17:09;18.83;;;11.73;;
53666;SDS011;39568;51.026;5.468;2023-02-28T02:26:18;24.27;;;14.65;;
53666;SDS011;39568;51.026;5.468;2023-02-28T02:29:07;29.45;;;14.27;;
53666;SDS011;39568;51.026;5.468;2023-02-28T02:31:55;24.65;;;13.98;;
53666;SDS011;39568;51.026;5.468;2023-02-28T02:34:42;22.98;;;13.00;;
53666;SDS011;39568;51.026;5.468;2023-02-28T02:37:20;19.48;;;13.13;;
53666;SDS011;39568;51.026;5.468;2023-02-28T02:39:58;27.80;;;13.68;;
53666;SDS011;39568;51.026;5.468;2023-02-28T02:42:29;22.15;;;14.77;;
53666;SDS011;39568;51.026;5.468;2023-02-28T02:45:03;24.05;;;14.07;;
53666;SDS011;39568;51.026;5.468;2023-02-28T02:47:35;29.63;;;14.85;;
53666;SDS011;39568;51.026;5.468;2023-02-28T02:50:07;24.52;;;12.55;;
53666;SDS011;39568;51.026;5.468;2023-02-28T02:52:38;14.75;;;12.30;;
53666;SDS011;39568;51.026;5.468;2023-02-28T02:55:09;25.03;;;14.67;;
53666;SDS011;39568;51.026;5.468;2023-02-28T02:57:38;23.90;;;14.13;;
53666;SDS011;39568;51.026;5.468;2023-02-28T03:00:10;33.97;;;14.13;;
53666;SDS011;39568;51.026;5.468;2023-02-28T03:02:38;24.85;;;13.55;;
53666;SDS011;39568;51.026;5.468;2023-02-28T03:05:14;21.05;;;14.25;;
53666;SDS011;39568;51.026;5.468;2023-02-28T03:07:46;26.98;;;12.52;;
53666;SDS011;39568;51.026;5.468;2023-02-28T03:10:25;23.05;;;13.48;;
53666;SDS011;39568;51.026;5.468;2023-02-28T03:15:26;23.58;;;13.20;;
53666;SDS011;39568;51.026;5.468;2023-02-28T03:18:03;17.75;;;12.77;;
53666;SDS011;39568;51.026;5.468;2023-02-28T03:20:37;22.23;;;14.20;;
53666;SDS011;39568;51.026;5.468;2023-02-28T03:23:11;22.55;;;14.20;;
53666;SDS011;39568;51.026;5.468;2023-02-28T03:25:44;21.60;;;13.32;;
53666;SDS011;39568;51.026;5.468;2023-02-28T03:28:19;24.08;;;13.90;;
53666;SDS011;39568;51.026;5.468;2023-02-28T03:30:51;17.52;;;12.45;;
53666;SDS011;39568;51.026;5.468;2023-02-28T03:33:23;20.52;;;12.77;;
53666;SDS011;39568;51.026;5.468;2023-02-28T03:35:55;20.33;;;12.52;;
53666;SDS011;39568;51.026;5.468;2023-02-28T03:40:57;24.45;;;13.43;;
53666;SDS011;39568;51.026;5.468;2023-02-28T03:43:32;24.88;;;12.00;;
53666;SDS011;39568;51.026;5.468;2023-02-28T03:46:04;17.95;;;11.43;;
53666;SDS011;39568;51.026;5.468;2023-02-28T03:48:37;15.02;;;10.50;;
53666;SDS011;39568;51.026;5.468;2023-02-28T03:53:37;21.10;;;10.07;;
53666;SDS011;39568;51.026;5.468;2023-02-28T03:56:06;20.23;;;10.02;;
53666;SDS011;39568;51.026;5.468;2023-02-28T03:58:39;22.30;;;11.23;;
53666;SDS011;39568;51.026;5.468;2023-02-28T04:01:11;18.17;;;10.18;;
53666;SDS011;39568;51.026;5.468;2023-02-28T04:03:42;15.50;;;9.65;;
53666;SDS011;39568;51.026;5.468;2023-02-28T04:06:14;15.05;;;9.60;;
53666;SDS011;39568;51.026;5.468;2023-02-28T04:08:44;15.68;;;9.85;;
53666;SDS011;39568;51.026;5.468;2023-02-28T04:11:14;15.40;;;10.63;;
53666;SDS011;39568;51.026;5.468;2023-02-28T04:13:46;17.17;;;9.85;;
53666;SDS011;39568;51.026;5.468;2023-02-28T04:16:13;17.63;;;11.98;;
53666;SDS011;39568;51.026;5.468;2023-02-28T04:18:40;20.38;;;13.73;;
53666;SDS011;39568;51.026;5.468;2023-02-28T04:21:08;17.77;;;12.00;;
53666;SDS011;39568;51.026;5.468;2023-02-28T04:23:37;21.95;;;11.90;;
53666;SDS011;39568;51.026;5.468;2023-02-28T04:26:04;21.17;;;12.85;;
53666;SDS011;39568;51.026;5.468;2023-02-28T04:28:31;23.90;;;13.70;;
53666;SDS011;39568;51.026;5.468;2023-02-28T04:30:59;19.80;;;12.75;;
53666;SDS011;39568;51.026;5.468;2023-02-28T04:33:27;21.55;;;12.57;;
53666;SDS011;39568;51.026;5.468;2023-02-28T04:36:00;19.15;;;11.55;;
53666;SDS011;39568;51.026;5.468;2023-02-28T04:38:29;18.55;;;12.02;;
53666;SDS011;39568;51.026;5.468;2023-02-28T04:40:58;24.10;;;15.20;;
53666;SDS011;39568;51.026;5.468;2023-02-28T04:43:25;27.13;;;14.30;;
53666;SDS011;39568;51.026;5.468;2023-02-28T04:45:53;20.50;;;14.45;;
53666;SDS011;39568;51.026;5.468;2023-02-28T04:48:21;24.38;;;15.93;;
53666;SDS011;39568;51.026;5.468;2023-02-28T04:50:48;20.42;;;15.10;;
53666;SDS011;39568;51.026;5.468;2023-02-28T04:53:15;21.30;;;15.40;;
53666;SDS011;39568;51.026;5.468;2023-02-28T04:55:42;31.23;;;16.85;;
53666;SDS011;39568;51.026;5.468;2023-02-28T04:58:10;29.83;;;17.48;;
53666;SDS011;39568;51.026;5.468;2023-02-28T05:00:36;26.63;;;16.20;;
53666;SDS011;39568;51.026;5.468;2023-02-28T05:03:03;32.17;;;18.40;;
53666;SDS011;39568;51.026;5.468;2023-02-28T05:05:30;28.80;;;15.77;;
53666;SDS011;39568;51.026;5.468;2023-02-28T05:07:56;40.67;;;19.20;;
53666;SDS011;39568;51.026;5.468;2023-02-28T05:10:23;42.13;;;19.55;;
53666;SDS011;39568;51.026;5.468;2023-02-28T05:12:50;37.55;;;17.58;;
53666;SDS011;39568;51.026;5.468;2023-02-28T05:15:18;40.13;;;17.80;;
53666;SDS011;39568;51.026;5.468;2023-02-28T05:17:44;35.08;;;18.77;;
53666;SDS011;39568;51.026;5.468;2023-02-28T05:20:11;45.22;;;19.48;;
53666;SDS011;39568;51.026;5.468;2023-02-28T05:22:39;31.27;;;20.05;;
53666;SDS011;39568;51.026;5.468;2023-02-28T05:25:08;32.45;;;18.42;;
53666;SDS011;39568;51.026;5.468;2023-02-28T05:27:37;35.00;;;17.35;;
53666;SDS011;39568;51.026;5.468;2023-02-28T05:30:04;35.85;;;19.00;;
53666;SDS011;39568;51.026;5.468;2023-02-28T05:32:36;28.83;;;18.60;;
53666;SDS011;39568;51.026;5.468;2023-02-28T05:35:03;29.35;;;16.80;;
53666;SDS011;39568;51.026;5.468;2023-02-28T05:37:31;26.95;;;16.52;;
53666;SDS011;39568;51.026;5.468;2023-02-28T05:39:57;22.58;;;15.50;;
53666;SDS011;39568;51.026;5.468;2023-02-28T05:42:24;26.65;;;16.15;;
53666;SDS011;39568;51.026;5.468;2023-02-28T05:44:51;22.40;;;15.88;;
53666;SDS011;39568;51.026;5.468;2023-02-28T05:47:18;24.38;;;16.70;;
53666;SDS011;39568;51.026;5.468;2023-02-28T05:49:46;29.30;;;17.35;;
53666;SDS011;39568;51.026;5.468;2023-02-28T05:52:12;30.65;;;18.67;;
53666;SDS011;39568;51.026;5.468;2023-02-28T05:54:39;33.67;;;20.25;;
53666;SDS011;39568;51.026;5.468;2023-02-28T05:57:06;34.08;;;18.80;;
53666;SDS011;39568;51.026;5.468;2023-02-28T05:59:33;28.00;;;18.63;;
53666;SDS011;39568;51.026;5.468;2023-02-28T06:02:00;33.13;;;19.35;;
53666;SDS011;39568;51.026;5.468;2023-02-28T06:04:26;28.52;;;17.95;;
53666;SDS011;39568;51.026;5.468;2023-02-28T06:06:54;39.97;;;19.27;;
53666;SDS011;39568;51.026;5.468;2023-02-28T06:09:22;32.83;;;17.05;;
53666;SDS011;39568;51.026;5.468;2023-02-28T06:11:50;24.75;;;16.67;;
53666;SDS011;39568;51.026;5.468;2023-02-28T06:14:17;28.45;;;16.02;;
53666;SDS011;39568;51.026;5.468;2023-02-28T06:16:45;31.63;;;16.20;;
53666;SDS011;39568;51.026;5.468;2023-02-28T06:19:12;18.45;;;15.20;;
53666;SDS011;39568;51.026;5.468;2023-02-28T06:21:40;27.70;;;15.50;;
53666;SDS011;39568;51.026;5.468;2023-02-28T06:24:08;31.38;;;16.13;;
53666;SDS011;39568;51.026;5.468;2023-02-28T06:26:35;28.20;;;14.40;;
53666;SDS011;39568;51.026;5.468;2023-02-28T06:29:02;28.98;;;15.20;;
53666;SDS011;39568;51.026;5.468;2023-02-28T06:31:29;29.35;;;15.88;;
53666;SDS011;39568;51.026;5.468;2023-02-28T06:33:56;25.60;;;15.55;;
53666;SDS011;39568;51.026;5.468;2023-02-28T06:36:22;28.00;;;16.35;;
53666;SDS011;39568;51.026;5.468;2023-02-28T06:38:49;27.27;;;15.50;;
53666;SDS011;39568;51.026;5.468;2023-02-28T06:41:21;32.78;;;15.40;;
53666;SDS011;39568;51.026;5.468;2023-02-28T06:43:49;28.05;;;18.52;;
53666;SDS011;39568;51.026;5.468;2023-02-28T06:46:16;23.33;;;15.90;;
53666;SDS011;39568;51.026;5.468;2023-02-28T06:48:42;25.23;;;15.65;;
53666;SDS011;39568;51.026;5.468;2023-02-28T06:51:10;31.42;;;18.05;;
53666;SDS011;39568;51.026;5.468;2023-02-28T06:53:39;37.45;;;18.50;;
53666;SDS011;39568;51.026;5.468;2023-02-28T06:56:06;38.45;;;18.42;;
53666;SDS011;39568;51.026;5.468;2023-02-28T06:58:35;29.52;;;17.42;;
53666;SDS011;39568;51.026;5.468;2023-02-28T07:01:03;26.73;;;16.83;;
53666;SDS011;39568;51.026;5.468;2023-02-28T07:03:30;30.88;;;18.17;;
53666;SDS011;39568;51.026;5.468;2023-02-28T07:05:57;31.25;;;17.05;;
53666;SDS011;39568;51.026;5.468;2023-02-28T07:08:24;26.63;;;17.02;;
53666;SDS011;39568;51.026;5.468;2023-02-28T07:10:52;25.73;;;15.90;;
53666;SDS011;39568;51.026;5.468;2023-02-28T07:13:19;32.63;;;19.58;;
53666;SDS011;39568;51.026;5.468;2023-02-28T07:15:53;23.17;;;15.32;;
53666;SDS011;39568;51.026;5.468;2023-02-28T07:18:20;23.60;;;15.35;;
53666;SDS011;39568;51.026;5.468;2023-02-28T07:20:47;20.08;;;13.68;;
53666;SDS011;39568;51.026;5.468;2023-02-28T07:23:14;21.35;;;13.90;;
53666;SDS011;39568;51.026;5.468;2023-02-28T07:25:41;21.45;;;12.13;;
53666;SDS011;39568;51.026;5.468;2023-02-28T07:28:07;21.17;;;11.07;;
53666;SDS011;39568;51.026;5.468;2023-02-28T07:30:34;21.30;;;10.38;;
53666;SDS011;39568;51.026;5.468;2023-02-28T07:33:02;12.38;;;9.60;;
53666;SDS011;39568;51.026;5.468;2023-02-28T07:35:29;12.02;;;8.82;;
53666;SDS011;39568;51.026;5.468;2023-02-28T07:37:56;12.57;;;8.10;;
53666;SDS011;39568;51.026;5.468;2023-02-28T07:40:24;11.23;;;9.10;;
53666;SDS011;39568;51.026;5.468;2023-02-28T07:42:51;14.73;;;8.80;;
53666;SDS011;39568;51.026;5.468;2023-02-28T07:45:18;15.05;;;8.15;;
53666;SDS011;39568;51.026;5.468;2023-02-28T07:47:45;12.73;;;8.32;;
53666;SDS011;39568;51.026;5.468;2023-02-28T07:50:14;12.10;;;7.15;;
53666;SDS011;39568;51.026;5.468;2023-02-28T07:52:42;8.30;;;6.53;;
53666;SDS011;39568;51.026;5.468;2023-02-28T07:55:09;14.73;;;7.55;;
53666;SDS011;39568;51.026;5.468;2023-02-28T07:57:36;14.88;;;9.10;;
53666;SDS011;39568;51.026;5.468;2023-02-28T08:00:04;14.55;;;7.80;;
53666;SDS011;39568;51.026;5.468;2023-02-28T08:02:34;18.52;;;8.93;;
53666;SDS011;39568;51.026;5.468;2023-02-28T08:05:01;13.05;;;7.30;;
53666;SDS011;39568;51.026;5.468;2023-02-28T08:07:29;14.93;;;8.52;;
53666;SDS011;39568;51.026;5.468;2023-02-28T08:09:56;24.00;;;9.07;;
53666;SDS011;39568;51.026;5.468;2023-02-28T08:12:23;23.08;;;9.32;;
53666;SDS011;39568;51.026;5.468;2023-02-28T08:14:49;14.48;;;7.72;;
53666;SDS011;39568;51.026;5.468;2023-02-28T08:17:16;14.35;;;6.43;;
53666;SDS011;39568;51.026;5.468;2023-02-28T08:19:44;10.45;;;7.32;;
53666;SDS011;39568;51.026;5.468;2023-02-28T08:22:11;7.18;;;6.47;;
53666;SDS011;39568;51.026;5.468;2023-02-28T08:24:40;12.52;;;6.40;;
53666;SDS011;39568;51.026;5.468;2023-02-28T08:27:07;9.95;;;5.18;;
53666;SDS011;39568;51.026;5.468;2023-02-28T08:29:34;9.25;;;5.85;;
53666;SDS011;39568;51.026;5.468;2023-02-28T08:32:03;8.95;;;5.55;;
53666;SDS011;39568;51.026;5.468;2023-02-28T08:34:30;13.80;;;6.05;;
53666;SDS011;39568;51.026;5.468;2023-02-28T08:36:57;6.32;;;4.85;;
53666;SDS011;39568;51.026;5.468;2023-02-28T08:39:24;6.78;;;3.92;;
53666;SDS011;39568;51.026;5.468;2023-02-28T08:41:52;6.35;;;4.13;;
53666;SDS011;39568;51.026;5.468;2023-02-28T08:44:18;4.30;;;3.60;;
53666;SDS011;39568;51.026;5.468;2023-02-28T08:46:45;8.32;;;4.55;;
53666;SDS011;39568;51.026;5.468;2023-02-28T08:49:12;4.22;;;3.75;;
53666;SDS011;39568;51.026;5.468;2023-02-28T08:51:39;6.22;;;3.10;;
53666;SDS011;39568;51.026;5.468;2023-02-28T08:54:05;6.13;;;3.88;;
53666;SDS011;39568;51.026;5.468;2023-02-28T08:56:32;3.90;;;3.38;;
53666;SDS011;39568;51.026;5.468;2023-02-28T08:59:00;3.13;;;2.92;;
53666;SDS011;39568;51.026;5.468;2023-02-28T09:01:27;3.80;;;2.47;;
53666;SDS011;39568;51.026;5.468;2023-02-28T09:03:55;3.08;;;2.72;;
53666;SDS011;39568;51.026;5.468;2023-02-28T09:06:23;7.75;;;2.63;;
53666;SDS011;39568;51.026;5.468;2023-02-28T09:08:51;3.35;;;3.08;;
53666;SDS011;39568;51.026;5.468;2023-02-28T09:11:19;2.97;;;2.33;;
53666;SDS011;39568;51.026;5.468;2023-02-28T09:13:45;4.55;;;1.90;;
53666;SDS011;39568;51.026;5.468;2023-02-28T09:16:14;2.75;;;2.55;;
53666;SDS011;39568;51.026;5.468;2023-02-28T09:18:42;7.07;;;2.50;;
53666;SDS011;39568;51.026;5.468;2023-02-28T09:21:11;3.08;;;2.30;;
53666;SDS011;39568;51.026;5.468;2023-02-28T09:23:39;3.78;;;2.72;;
53666;SDS011;39568;51.026;5.468;2023-02-28T09:26:06;2.33;;;2.13;;
53666;SDS011;39568;51.026;5.468;2023-02-28T09:28:33;3.45;;;2.58;;
53666;SDS011;39568;51.026;5.468;2023-02-28T09:31:00;2.70;;;1.60;;
53666;SDS011;39568;51.026;5.468;2023-02-28T09:33:31;1.85;;;1.70;;
53666;SDS011;39568;51.026;5.468;2023-02-28T09:35:59;1.83;;;1.73;;
53666;SDS011;39568;51.026;5.468;2023-02-28T09:38:27;2.45;;;1.77;;
53666;SDS011;39568;51.026;5.468;2023-02-28T09:40:55;1.55;;;1.45;;
53666;SDS011;39568;51.026;5.468;2023-02-28T09:43:25;3.28;;;2.00;;
53666;SDS011;39568;51.026;5.468;2023-02-28T09:45:56;1.58;;;1.48;;
53666;SDS011;39568;51.026;5.468;2023-02-28T09:50:59;2.28;;;1.40;;
53666;SDS011;39568;51.026;5.468;2023-02-28T09:53:29;1.90;;;1.80;;
53666;SDS011;39568;51.026;5.468;2023-02-28T09:55:59;3.83;;;2.03;;
53666;SDS011;39568;51.026;5.468;2023-02-28T09:58:34;5.75;;;2.58;;
53666;SDS011;39568;51.026;5.468;2023-02-28T10:01:07;7.93;;;1.77;;
53666;SDS011;39568;51.026;5.468;2023-02-28T10:03:39;5.97;;;2.03;;
53666;SDS011;39568;51.026;5.468;2023-02-28T10:06:12;2.00;;;1.80;;
53666;SDS011;39568;51.026;5.468;2023-02-28T10:08:45;3.88;;;2.28;;
53666;SDS011;39568;51.026;5.468;2023-02-28T10:11:18;4.38;;;1.63;;
53666;SDS011;39568;51.026;5.468;2023-02-28T10:13:52;2.70;;;2.22;;
53666;SDS011;39568;51.026;5.468;2023-02-28T10:16:27;1.67;;;1.58;;
53666;SDS011;39568;51.026;5.468;2023-02-28T10:18:58;1.63;;;1.52;;
53666;SDS011;39568;51.026;5.468;2023-02-28T10:21:31;4.90;;;1.50;;
53666;SDS011;39568;51.026;5.468;2023-02-28T10:24:11;2.35;;;1.58;;
53666;SDS011;39568;51.026;5.468;2023-02-28T10:26:45;1.90;;;1.80;;
53666;SDS011;39568;51.026;5.468;2023-02-28T10:29:13;1.30;;;1.20;;
53666;SDS011;39568;51.026;5.468;2023-02-28T10:31:41;1.70;;;1.55;;
53666;SDS011;39568;51.026;5.468;2023-02-28T10:34:08;1.55;;;1.15;;
53666;SDS011;39568;51.026;5.468;2023-02-28T10:36:40;8.80;;;1.60;;
53666;SDS011;39568;51.026;5.468;2023-02-28T10:42:05;1.88;;;1.77;;
53666;SDS011;39568;51.026;5.468;2023-02-28T10:44:45;3.63;;;1.58;;
53666;SDS011;39568;51.026;5.468;2023-02-28T10:47:13;1.10;;;1.10;;
53666;SDS011;39568;51.026;5.468;2023-02-28T10:49:45;11.02;;;1.52;;
53666;SDS011;39568;51.026;5.468;2023-02-28T10:52:15;1.98;;;1.50;;
53666;SDS011;39568;51.026;5.468;2023-02-28T10:55:15;1.73;;;1.40;;
53666;SDS011;39568;51.026;5.468;2023-02-28T10:57:46;4.00;;;0.90;;
53666;SDS011;39568;51.026;5.468;2023-02-28T11:00:15;1.92;;;1.23;;
53666;SDS011;39568;51.026;5.468;2023-02-28T11:02:43;1.55;;;1.45;;
53666;SDS011;39568;51.026;5.468;2023-02-28T11:05:27;2.75;;;1.73;;
53666;SDS011;39568;51.026;5.468;2023-02-28T11:07:58;2.30;;;1.30;;
53666;SDS011;39568;51.026;5.468;2023-02-28T11:10:30;1.00;;;0.88;;
53666;SDS011;39568;51.026;5.468;2023-02-28T11:12:59;1.65;;;1.50;;
53666;SDS011;39568;51.026;5.468;2023-02-28T11:15:28;3.08;;;1.60;;
53666;SDS011;39568;51.026;5.468;2023-02-28T11:17:56;5.40;;;1.80;;
53666;SDS011;39568;51.026;5.468;2023-02-28T11:20:26;2.35;;;1.30;;
53666;SDS011;39568;51.026;5.468;2023-02-28T11:22:57;1.65;;;1.55;;
53666;SDS011;39568;51.026;5.468;2023-02-28T11:25:28;1.58;;;1.48;;
53666;SDS011;39568;51.026;5.468;2023-02-28T11:27:57;4.40;;;1.70;;
53666;SDS011;39568;51.026;5.468;2023-02-28T11:30:30;3.42;;;1.48;;
53666;SDS011;39568;51.026;5.468;2023-02-28T11:32:59;2.22;;;1.48;;
53666;SDS011;39568;51.026;5.468;2023-02-28T11:35:28;1.40;;;1.40;;
53666;SDS011;39568;51.026;5.468;2023-02-28T11:37:58;4.75;;;1.60;;
53666;SDS011;39568;51.026;5.468;2023-02-28T11:40:28;1.45;;;1.35;;
53666;SDS011;39568;51.026;5.468;2023-02-28T11:43:06;4.38;;;1.58;;
53666;SDS011;39568;51.026;5.468;2023-02-28T11:45:55;5.50;;;1.80;;
53666;SDS011;39568;51.026;5.468;2023-02-28T11:48:32;1.83;;;1.08;;
53666;SDS011;39568;51.026;5.468;2023-02-28T11:51:08;2.97;;;1.42;;
53666;SDS011;39568;51.026;5.468;2023-02-28T11:56:36;1.73;;;1.30;;
53666;SDS011;39568;51.026;5.468;2023-02-28T11:59:14;2.60;;;1.58;;
53666;SDS011;39568;51.026;5.468;2023-02-28T12:02:01;2.97;;;1.73;;
53666;SDS011;39568;51.026;5.468;2023-02-28T12:04:43;3.65;;;1.85;;
53666;SDS011;39568;51.026;5.468;2023-02-28T12:07:21;4.57;;;2.17;;
53666;SDS011;39568;51.026;5.468;2023-02-28T12:10:00;1.25;;;1.25;;
53666;SDS011;39568;51.026;5.468;2023-02-28T12:12:42;1.90;;;1.80;;
53666;SDS011;39568;51.026;5.468;2023-02-28T12:15:32;4.00;;;1.48;;
53666;SDS011;39568;51.026;5.468;2023-02-28T12:18:14;1.85;;;1.60;;
53666;SDS011;39568;51.026;5.468;2023-02-28T12:20:53;4.40;;;1.60;;
53666;SDS011;39568;51.026;5.468;2023-02-28T12:26:30;8.35;;;2.10;;
53666;SDS011;39568;51.026;5.468;2023-02-28T12:29:04;2.03;;;1.92;;
53666;SDS011;39568;51.026;5.468;2023-02-28T12:31:40;2.35;;;1.98;;
53666;SDS011;39568;51.026;5.468;2023-02-28T12:34:12;6.95;;;2.05;;
53666;SDS011;39568;51.026;5.468;2023-02-28T12:36:45;8.55;;;1.58;;
53666;SDS011;39568;51.026;5.468;2023-02-28T12:39:15;2.92;;;1.52;;
53666;SDS011;39568;51.026;5.468;2023-02-28T12:41:47;1.70;;;1.60;;
53666;SDS011;39568;51.026;5.468;2023-02-28T12:44:19;2.88;;;2.15;;
53666;SDS011;39568;51.026;5.468;2023-02-28T12:46:48;2.88;;;2.22;;
53666;SDS011;39568;51.026;5.468;2023-02-28T12:49:19;2.30;;;2.10;;
53666;SDS011;39568;51.026;5.468;2023-02-28T12:51:50;5.57;;;1.60;;
53666;SDS011;39568;51.026;5.468;2023-02-28T12:54:19;2.92;;;1.80;;
53666;SDS011;39568;51.026;5.468;2023-02-28T12:56:55;1.65;;;1.55;;
53666;SDS011;39568;51.026;5.468;2023-02-28T12:59:32;2.28;;;1.83;;
53666;SDS011;39568;51.026;5.468;2023-02-28T13:08:24;1.33;;;1.30;;
53666;SDS011;39568;51.026;5.468;2023-02-28T13:11:06;10.75;;;2.17;;
53666;SDS011;39568;51.026;5.468;2023-02-28T13:13:34;4.95;;;1.80;;
53666;SDS011;39568;51.026;5.468;2023-02-28T13:16:03;1.77;;;1.67;;
53666;SDS011;39568;51.026;5.468;2023-02-28T13:18:33;4.28;;;1.85;;
53666;SDS011;39568;51.026;5.468;2023-02-28T13:21:06;1.55;;;1.48;;
53666;SDS011;39568;51.026;5.468;2023-02-28T13:23:39;1.95;;;1.85;;
53666;SDS011;39568;51.026;5.468;2023-02-28T13:26:23;6.47;;;1.73;;
53666;SDS011;39568;51.026;5.468;2023-02-28T13:29:30;1.58;;;1.48;;
53666;SDS011;39568;51.026;5.468;2023-02-28T13:34:47;3.08;;;2.28;;
53666;SDS011;39568;51.026;5.468;2023-02-28T13:37:44;6.55;;;3.25;;
53666;SDS011;39568;51.026;5.468;2023-02-28T13:40:28;4.32;;;1.83;;
53666;SDS011;39568;51.026;5.468;2023-02-28T13:43:02;2.45;;;2.25;;
53666;SDS011;39568;51.026;5.468;2023-02-28T13:45:30;3.33;;;2.40;;
53666;SDS011;39568;51.026;5.468;2023-02-28T13:48:03;1.92;;;1.83;;
53666;SDS011;39568;51.026;5.468;2023-02-28T13:50:32;5.43;;;1.63;;
53666;SDS011;39568;51.026;5.468;2023-02-28T13:53:11;2.03;;;1.80;;
53666;SDS011;39568;51.026;5.468;2023-02-28T13:55:57;3.72;;;1.90;;
53666;SDS011;39568;51.026;5.468;2023-02-28T13:58:35;2.03;;;1.77;;
53666;SDS011;39568;51.026;5.468;2023-02-28T14:07:16;5.20;;;1.85;;
53666;SDS011;39568;51.026;5.468;2023-02-28T14:09:46;2.25;;;2.05;;
53666;SDS011;39568;51.026;5.468;2023-02-28T14:15:40;1.50;;;1.50;;
53666;SDS011;39568;51.026;5.468;2023-02-28T14:18:19;5.60;;;1.90;;
53666;SDS011;39568;51.026;5.468;2023-02-28T14:20:49;4.82;;;2.50;;
53666;SDS011;39568;51.026;5.468;2023-02-28T14:23:24;4.00;;;2.15;;
53666;SDS011;39568;51.026;5.468;2023-02-28T14:26:02;2.53;;;1.83;;
53666;SDS011;39568;51.026;5.468;2023-02-28T14:28:45;6.18;;;1.75;;
53666;SDS011;39568;51.026;5.468;2023-02-28T14:31:23;1.92;;;1.83;;
53666;SDS011;39568;51.026;5.468;2023-02-28T14:34:02;3.38;;;1.95;;
53666;SDS011;39568;51.026;5.468;2023-02-28T14:36:43;3.15;;;1.63;;
53666;SDS011;39568;51.026;5.468;2023-02-28T14:39:12;4.40;;;2.03;;
53666;SDS011;39568;51.026;5.468;2023-02-28T14:41:41;3.10;;;2.28;;
53666;SDS011;39568;51.026;5.468;2023-02-28T14:44:14;2.83;;;1.75;;
53666;SDS011;39568;51.026;5.468;2023-02-28T14:46:42;1.80;;;1.67;;
53666;SDS011;39568;51.026;5.468;2023-02-28T14:49:15;1.52;;;1.42;;
53666;SDS011;39568;51.026;5.468;2023-02-28T14:51:44;2.80;;;1.52;;
53666;SDS011;39568;51.026;5.468;2023-02-28T14:54:13;2.92;;;1.52;;
53666;SDS011;39568;51.026;5.468;2023-02-28T14:56:41;2.25;;;1.77;;
53666;SDS011;39568;51.026;5.468;2023-02-28T14:59:23;3.17;;;1.80;;
53666;SDS011;39568;51.026;5.468;2023-02-28T15:01:51;4.57;;;1.75;;
53666;SDS011;39568;51.026;5.468;2023-02-28T15:04:21;2.60;;;1.50;;
53666;SDS011;39568;51.026;5.468;2023-02-28T15:07:06;2.63;;;2.00;;
53666;SDS011;39568;51.026;5.468;2023-02-28T15:09:33;3.40;;;1.77;;
53666;SDS011;39568;51.026;5.468;2023-02-28T15:12:00;2.30;;;2.03;;
53666;SDS011;39568;51.026;5.468;2023-02-28T15:14:27;3.50;;;1.63;;
53666;SDS011;39568;51.026;5.468;2023-02-28T15:16:56;2.08;;;1.88;;
53666;SDS011;39568;51.026;5.468;2023-02-28T15:19:27;1.85;;;1.65;;
53666;SDS011;39568;51.026;5.468;2023-02-28T15:21:56;2.00;;;1.65;;
53666;SDS011;39568;51.026;5.468;2023-02-28T15:24:29;2.03;;;1.87;;
53666;SDS011;39568;51.026;5.468;2023-02-28T15:27:02;4.68;;;1.65;;
53666;SDS011;39568;51.026;5.468;2023-02-28T15:29:32;2.35;;;2.00;;
53666;SDS011;39568;51.026;5.468;2023-02-28T15:32:07;1.70;;;1.50;;
53666;SDS011;39568;51.026;5.468;2023-02-28T15:34:51;2.85;;;2.03;;
53666;SDS011;39568;51.026;5.468;2023-02-28T15:37:26;5.25;;;1.88;;
53666;SDS011;39568;51.026;5.468;2023-02-28T15:40:05;2.33;;;2.13;;